createdAt,value
2023-04-10T00:00:34.874Z,92.14
2023-04-10T00:01:34.883Z,92.35
2023-04-10T00:02:34.920Z,92.56
2023-04-10T00:03:34.913Z,92.56
2023-04-10T00:04:34.963Z,92.46
2023-04-10T00:05:34.789Z,92.46
2023-04-10T00:06:34.783Z,92.50
2023-04-10T00:07:34.796Z,92.71
2023-04-10T00:08:34.772Z,92.03
2023-04-10T00:09:34.745Z,91.87
2023-04-10T00:10:34.736Z,92.60
2023-04-10T00:11:34.728Z,92.50
2023-04-10T00:12:34.713Z,92.18
2023-04-10T00:13:34.759Z,92.81
2023-04-10T00:14:34.691Z,92.71
2023-04-10T00:15:34.679Z,93.12
2023-04-10T00:16:34.726Z,92.81
2023-04-10T00:17:34.689Z,93.23
2023-04-10T00:18:34.670Z,92.75
2023-04-10T00:19:34.649Z,92.29
2023-04-10T00:20:34.621Z,92.08
2023-04-10T00:21:41.777Z,91.77
2023-04-10T00:22:34.603Z,91.91
2023-04-10T00:23:41.786Z,92.75
2023-04-10T00:24:42.659Z,92.44
2023-04-10T00:25:41.701Z,92.75
2023-04-10T00:26:34.583Z,92.65
2023-04-10T00:27:34.545Z,93.69
2023-04-10T00:28:34.553Z,93.69
2023-04-10T00:29:34.519Z,93.79
2023-04-10T00:30:34.555Z,93.79
2023-04-10T00:31:34.545Z,93.48
2023-04-10T00:32:34.505Z,93.21
2023-04-10T00:33:34.500Z,93.10
2023-04-10T00:34:34.464Z,93.21
2023-04-10T00:35:34.472Z,93.63
2023-04-10T00:36:34.462Z,93.79
2023-04-10T00:37:34.443Z,93.41
2023-04-10T00:38:34.438Z,93.94
2023-04-10T00:39:34.432Z,93.31
2023-04-10T00:40:34.400Z,93.84
2023-04-10T00:41:34.411Z,93.84
2023-04-10T00:42:34.374Z,93.73
2023-04-10T00:43:34.380Z,93.31
2023-04-10T00:44:34.358Z,93.63
2023-04-10T00:45:34.442Z,93.41
2023-04-10T00:46:34.354Z,93.63
2023-04-10T00:47:34.393Z,93.57
2023-04-10T00:48:34.306Z,93.31
2023-04-10T00:49:34.303Z,93.77
2023-04-10T00:50:34.288Z,93.21
2023-04-10T00:51:34.298Z,94.35
2023-04-10T00:52:34.263Z,94.46
2023-04-10T00:53:34.278Z,94.35
2023-04-10T00:54:34.238Z,94.25
2023-04-10T00:55:34.245Z,93.77
2023-04-10T00:56:34.254Z,93.31
2023-04-10T00:57:34.201Z,93.73
2023-04-10T00:58:34.199Z,93.67
2023-04-10T00:59:34.239Z,93.77
2023-04-10T01:00:34.173Z,93.77
2023-04-10T01:01:34.272Z,93.35
2023-04-10T01:02:34.267Z,93.77
2023-04-10T01:03:34.221Z,93.88
2023-04-10T01:04:34.313Z,93.67
2023-04-10T01:05:34.146Z,93.46
2023-04-10T01:06:34.100Z,93.46
2023-04-10T01:07:34.085Z,93.57
2023-04-10T01:08:34.074Z,94.61
2023-04-10T01:09:34.073Z,94.40
2023-04-10T01:10:34.088Z,94.40
2023-04-10T01:11:34.067Z,94.40
2023-04-10T01:12:34.041Z,94.55
2023-04-10T01:13:34.019Z,94.19
2023-04-10T01:14:34.051Z,94.19
2023-04-10T01:15:34.019Z,94.19
2023-04-10T01:16:34.006Z,94.29
2023-04-10T01:17:34.012Z,94.19
2023-04-10T01:18:33.998Z,94.19
2023-04-10T01:19:33.965Z,93.98
2023-04-10T01:20:33.960Z,94.09
2023-04-10T01:21:33.930Z,94.29
2023-04-10T01:22:33.924Z,94.09
2023-04-10T01:23:33.914Z,94.19
2023-04-10T01:24:33.895Z,94.19
2023-04-10T01:25:33.905Z,94.19
2023-04-10T01:26:33.873Z,94.29
2023-04-10T01:27:33.883Z,94.23
2023-04-10T01:28:33.862Z,94.29
2023-04-10T01:29:33.848Z,94.29
2023-04-10T01:30:33.931Z,94.40
2023-04-10T01:31:33.831Z,93.92
2023-04-10T01:32:33.864Z,94.13
2023-04-10T01:33:33.817Z,94.55
2023-04-10T01:34:33.800Z,94.44
2023-04-10T01:35:33.791Z,94.23
2023-04-10T01:36:33.759Z,93.92
2023-04-10T01:37:33.745Z,93.50
2023-04-10T01:38:33.739Z,93.82
2023-04-10T01:39:33.745Z,93.82
2023-04-10T01:40:33.717Z,93.82
2023-04-10T01:41:33.709Z,93.82
2023-04-10T01:42:33.702Z,93.71
2023-04-10T01:43:33.706Z,93.71
2023-04-10T01:44:33.702Z,93.82
2023-04-10T01:45:33.698Z,94.55
2023-04-10T01:46:33.675Z,94.55
2023-04-10T01:47:33.683Z,94.23
2023-04-10T01:48:33.627Z,94.23
2023-04-10T01:49:33.634Z,94.44
2023-04-10T01:50:33.620Z,93.82
2023-04-10T01:51:33.593Z,94.23
2023-04-10T01:52:33.606Z,94.23
2023-04-10T01:53:33.574Z,94.34
2023-04-10T01:54:33.576Z,94.13
2023-04-10T01:55:33.552Z,94.34
2023-04-10T01:56:33.534Z,94.34
2023-04-10T01:57:33.549Z,94.07
2023-04-10T01:58:33.513Z,94.23
2023-04-10T01:59:33.525Z,94.07
2023-04-10T02:00:33.496Z,94.17
2023-04-10T02:01:33.643Z,93.86
2023-04-10T02:02:33.735Z,93.33
2023-04-10T02:03:33.575Z,94.17
2023-04-10T02:04:33.591Z,93.96
2023-04-10T02:05:33.529Z,94.38
2023-04-10T02:06:33.448Z,94.17
2023-04-10T02:07:33.414Z,93.96
2023-04-10T02:08:33.408Z,93.65
2023-04-10T02:09:33.390Z,93.76
2023-04-10T02:10:34.343Z,93.76
2023-04-10T02:11:33.400Z,93.48
2023-04-10T02:12:33.355Z,94.38
2023-04-10T02:13:33.348Z,94.38
2023-04-10T02:14:36.377Z,94.38
2023-04-10T02:15:33.381Z,94.38
2023-04-10T02:16:33.393Z,94.07
2023-04-10T02:17:33.312Z,94.17
2023-04-10T02:18:33.324Z,94.38
2023-04-10T02:19:33.278Z,94.38
2023-04-10T02:20:33.288Z,94.17
2023-04-10T02:21:33.260Z,94.42
2023-04-10T02:22:33.244Z,94.32
2023-04-10T02:23:33.230Z,94.27
2023-04-10T02:24:33.241Z,94.32
2023-04-10T02:25:33.219Z,94.42
2023-04-10T02:26:33.195Z,94.84
2023-04-10T02:27:33.199Z,94.42
2023-04-10T02:28:33.179Z,94.42
2023-04-10T02:29:33.194Z,94.64
2023-04-10T02:30:33.149Z,94.32
2023-04-10T02:31:33.196Z,94.32
2023-04-10T02:32:33.213Z,94.21
2023-04-10T02:33:33.118Z,94.21
2023-04-10T02:34:33.105Z,94.32
2023-04-10T02:35:33.149Z,94.32
2023-04-10T02:36:33.099Z,94.57
2023-04-10T02:37:33.085Z,93.95
2023-04-10T02:38:33.067Z,93.95
2023-04-10T02:39:33.057Z,93.90
2023-04-10T02:40:33.036Z,93.63
2023-04-10T02:41:33.049Z,94.57
2023-04-10T02:42:33.017Z,94.57
2023-04-10T02:43:33.001Z,94.46
2023-04-10T02:44:32.992Z,94.36
2023-04-10T02:45:32.990Z,94.46
2023-04-10T02:46:33.039Z,94.36
2023-04-10T02:47:33.027Z,94.89
2023-04-10T02:48:32.944Z,94.36
2023-04-10T02:49:32.937Z,94.36
2023-04-10T02:50:32.923Z,94.36
2023-04-10T02:51:32.920Z,94.57
2023-04-10T02:52:32.921Z,94.57
2023-04-10T02:53:32.885Z,93.74
2023-04-10T02:54:32.877Z,94.26
2023-04-10T02:55:32.872Z,94.36
2023-04-10T02:56:32.875Z,94.26
2023-04-10T02:57:32.865Z,94.57
2023-04-10T02:58:32.832Z,94.46
2023-04-10T02:59:32.841Z,94.68
2023-04-10T03:00:32.830Z,94.46
2023-04-10T03:01:32.848Z,94.26
2023-04-10T03:02:33.010Z,94.57
2023-04-10T03:03:32.941Z,94.30
2023-04-10T03:04:32.792Z,94.40
2023-04-10T03:05:32.777Z,94.40
2023-04-10T03:06:32.758Z,94.40
2023-04-10T03:07:32.736Z,94.51
2023-04-10T03:08:32.725Z,94.09
2023-04-10T03:09:32.721Z,93.99
2023-04-10T03:10:32.749Z,93.78
2023-04-10T03:11:32.689Z,94.30
2023-04-10T03:12:32.680Z,94.62
2023-04-10T03:13:32.668Z,94.40
2023-04-10T03:14:32.654Z,94.40
2023-04-10T03:15:32.683Z,94.46
2023-04-10T03:16:32.726Z,94.62
2023-04-10T03:17:32.676Z,94.30
2023-04-10T03:18:32.632Z,94.72
2023-04-10T03:19:32.614Z,94.40
2023-04-10T03:20:32.583Z,94.40
2023-04-10T03:21:32.622Z,94.30
2023-04-10T03:22:32.566Z,95.03
2023-04-10T03:23:32.553Z,94.93
2023-04-10T03:24:32.540Z,95.25
2023-04-10T03:25:32.536Z,95.35
2023-04-10T03:26:32.545Z,95.66
2023-04-10T03:27:32.520Z,95.56
2023-04-10T03:28:32.497Z,95.35
2023-04-10T03:29:32.510Z,95.45
2023-04-10T03:30:32.498Z,95.03
2023-04-10T03:31:32.530Z,95.35
2023-04-10T03:32:32.473Z,94.97
2023-04-10T03:33:32.481Z,95.07
2023-04-10T03:34:32.426Z,94.56
2023-04-10T03:35:32.483Z,95.39
2023-04-10T03:36:32.405Z,95.50
2023-04-10T03:37:32.413Z,95.50
2023-04-10T03:38:32.383Z,95.39
2023-04-10T03:39:32.382Z,95.45
2023-04-10T03:40:32.360Z,95.81
2023-04-10T03:41:32.383Z,95.98
2023-04-10T03:42:32.347Z,96.02
2023-04-10T03:43:32.378Z,95.87
2023-04-10T03:44:32.345Z,95.87
2023-04-10T03:45:32.322Z,95.45
2023-04-10T03:46:32.328Z,95.45
2023-04-10T03:47:32.370Z,96.08
2023-04-10T03:48:32.299Z,95.56
2023-04-10T03:49:32.263Z,95.56
2023-04-10T03:50:32.248Z,95.98
2023-04-10T03:51:32.302Z,95.87
2023-04-10T03:52:32.229Z,95.45
2023-04-10T03:53:34.042Z,95.76
2023-04-10T03:54:32.197Z,95.66
2023-04-10T03:55:34.723Z,95.76
2023-04-10T03:56:32.180Z,95.66
2023-04-10T03:57:32.187Z,95.98
2023-04-10T03:58:32.174Z,95.87
2023-04-10T03:59:38.706Z,95.66
2023-04-10T04:00:33.137Z,95.56
2023-04-10T04:01:32.123Z,95.76
2023-04-10T04:02:32.232Z,95.66
2023-04-10T04:03:32.243Z,95.76
2023-04-10T04:04:32.213Z,95.56
2023-04-10T04:05:32.077Z,95.76
2023-04-10T04:06:32.091Z,95.56
2023-04-10T04:07:32.072Z,95.87
2023-04-10T04:08:32.065Z,95.66
2023-04-10T04:09:32.065Z,95.66
2023-04-10T04:10:32.018Z,95.66
2023-04-10T04:11:32.011Z,95.92
2023-04-10T04:12:32.000Z,95.70
2023-04-10T04:13:32.013Z,95.29
2023-04-10T04:14:31.975Z,95.50
2023-04-10T04:15:31.979Z,95.39
2023-04-10T04:16:31.970Z,95.92
2023-04-10T04:17:32.035Z,95.70
2023-04-10T04:18:31.935Z,95.64
2023-04-10T04:19:31.917Z,95.92
2023-04-10T04:20:31.907Z,95.81
2023-04-10T04:21:31.932Z,95.75
2023-04-10T04:22:32.008Z,95.92
2023-04-10T04:23:31.890Z,95.75
2023-04-10T04:24:31.864Z,95.96
2023-04-10T04:25:31.856Z,96.12
2023-04-10T04:26:31.855Z,96.44
2023-04-10T04:27:31.843Z,96.23
2023-04-10T04:28:31.824Z,96.55
2023-04-10T04:29:31.804Z,96.44
2023-04-10T04:30:31.804Z,96.96
2023-04-10T04:31:31.850Z,96.86
2023-04-10T04:32:31.802Z,97.17
2023-04-10T04:33:31.773Z,96.65
2023-04-10T04:34:31.763Z,96.33
2023-04-10T04:35:31.752Z,96.96
2023-04-10T04:36:31.735Z,95.81
2023-04-10T04:37:31.739Z,96.86
2023-04-10T04:38:31.715Z,96.55
2023-04-10T04:39:31.711Z,96.44
2023-04-10T04:40:31.695Z,96.86
2023-04-10T04:41:31.686Z,96.44
2023-04-10T04:42:31.687Z,96.96
2023-04-10T04:43:31.674Z,96.96
2023-04-10T04:44:31.660Z,96.44
2023-04-10T04:45:31.652Z,96.55
2023-04-10T04:46:31.666Z,96.44
2023-04-10T04:47:31.634Z,96.75
2023-04-10T04:48:31.594Z,96.55
2023-04-10T04:49:31.608Z,96.33
2023-04-10T04:50:31.570Z,96.44
2023-04-10T04:51:31.608Z,96.23
2023-04-10T04:52:31.576Z,96.12
2023-04-10T04:53:31.569Z,96.55
2023-04-10T04:54:31.524Z,96.44
2023-04-10T04:55:31.534Z,96.33
2023-04-10T04:56:31.577Z,96.92
2023-04-10T04:57:31.504Z,96.65
2023-04-10T04:58:31.500Z,96.29
2023-04-10T04:59:31.472Z,96.39
2023-04-10T05:00:31.460Z,96.81
2023-04-10T05:01:31.465Z,96.92
2023-04-10T05:02:31.542Z,96.92
2023-04-10T05:03:31.635Z,97.23
2023-04-10T05:04:31.433Z,96.88
2023-04-10T05:05:31.402Z,96.98
2023-04-10T05:06:31.407Z,96.88
2023-04-10T05:07:31.410Z,96.88
2023-04-10T05:08:31.370Z,96.77
2023-04-10T05:09:31.370Z,96.66
2023-04-10T05:10:31.341Z,96.77
2023-04-10T05:11:31.395Z,96.77
2023-04-10T05:12:31.324Z,96.98
2023-04-10T05:13:31.384Z,96.66
2023-04-10T05:14:31.295Z,96.66
2023-04-10T05:15:31.343Z,96.83
2023-04-10T05:16:31.274Z,97.14
2023-04-10T05:17:31.305Z,96.83
2023-04-10T05:18:31.327Z,96.83
2023-04-10T05:19:31.242Z,97.62
2023-04-10T05:20:31.241Z,97.10
2023-04-10T05:21:31.247Z,97.52
2023-04-10T05:22:31.208Z,97.41
2023-04-10T05:23:31.213Z,97.05
2023-04-10T05:24:31.180Z,97.27
2023-04-10T05:25:31.192Z,97.27
2023-04-10T05:26:31.159Z,97.64
2023-04-10T05:27:31.187Z,97.47
2023-04-10T05:28:31.179Z,97.64
2023-04-10T05:29:31.131Z,97.80
2023-04-10T05:30:31.117Z,97.43
2023-04-10T05:31:31.215Z,97.49
2023-04-10T05:32:31.173Z,96.97
2023-04-10T05:33:31.090Z,97.17
2023-04-10T05:34:31.094Z,97.38
2023-04-10T05:35:31.089Z,97.38
2023-04-10T05:36:31.667Z,97.24
2023-04-10T05:37:31.060Z,97.44
2023-04-10T05:38:31.026Z,97.44
2023-04-10T05:39:31.025Z,96.40
2023-04-10T05:40:31.040Z,97.44
2023-04-10T05:41:30.992Z,97.19
2023-04-10T05:42:31.009Z,97.24
2023-04-10T05:43:30.996Z,97.30
2023-04-10T05:44:30.964Z,97.09
2023-04-10T05:45:30.977Z,97.09
2023-04-10T05:46:31.011Z,97.40
2023-04-10T05:47:31.029Z,97.50
2023-04-10T05:48:30.923Z,97.35
2023-04-10T05:49:30.927Z,96.94
2023-04-10T05:50:30.894Z,97.35
2023-04-10T05:51:30.912Z,97.04
2023-04-10T05:52:30.889Z,97.25
2023-04-10T05:53:30.859Z,97.04
2023-04-10T05:54:30.862Z,97.25
2023-04-10T05:55:30.840Z,97.25
2023-04-10T05:56:30.823Z,97.04
2023-04-10T05:57:30.836Z,96.52
2023-04-10T05:58:30.859Z,96.48
2023-04-10T05:59:30.814Z,96.37
2023-04-10T06:00:30.816Z,96.37
2023-04-10T06:01:30.769Z,96.48
2023-04-10T06:02:31.185Z,96.48
2023-04-10T06:03:31.008Z,96.53
2023-04-10T06:04:30.923Z,96.95
2023-04-10T06:05:30.724Z,96.75
2023-04-10T06:06:30.707Z,96.86
2023-04-10T06:07:30.770Z,96.98
2023-04-10T06:08:30.722Z,96.85
2023-04-10T06:09:30.713Z,96.92
2023-04-10T06:10:30.665Z,95.44
2023-04-10T06:11:30.655Z,94.23
2023-04-10T06:12:30.659Z,92.76
2023-04-10T06:13:30.629Z,92.33
2023-04-10T06:14:30.636Z,91.47
2023-04-10T06:15:30.646Z,89.50
2023-04-10T06:16:30.676Z,86.60
2023-04-10T06:17:37.864Z,85.71
2023-04-10T06:18:38.257Z,82.35
2023-04-10T06:19:30.566Z,79.68
2023-04-10T06:20:39.431Z,78.17
2023-04-10T06:21:38.190Z,77.79
2023-04-10T06:23:46.734Z,72.69
2023-04-10T06:24:46.940Z,71.46
2023-04-10T06:25:46.964Z,69.63
2023-04-10T06:26:46.666Z,70.10
2023-04-10T06:27:46.659Z,67.52
2023-04-10T06:28:46.678Z,66.44
2023-04-10T06:29:46.636Z,67.59
2023-04-10T06:30:46.665Z,70.54
2023-04-10T06:31:46.844Z,69.53
2023-04-10T06:32:46.641Z,70.82
2023-04-10T06:33:46.618Z,69.02
2023-04-10T06:34:46.578Z,68.92
2023-04-10T06:35:46.616Z,69.77
2023-04-10T06:36:46.572Z,67.19
2023-04-10T06:37:46.566Z,66.32
2023-04-10T06:38:46.533Z,65.99
2023-04-10T06:39:46.561Z,64.76
2023-04-10T06:40:46.511Z,64.64
2023-04-10T06:41:46.502Z,65.11
2023-04-10T06:42:46.507Z,65.28
2023-04-10T06:43:46.512Z,63.46
2023-04-10T06:44:46.470Z,63.02
2023-04-10T06:45:46.514Z,62.49
2023-04-10T06:46:46.462Z,62.89
2023-04-10T06:47:46.461Z,61.85
2023-04-10T06:48:46.451Z,61.04
2023-04-10T06:49:46.424Z,61.41
2023-04-10T06:50:46.587Z,58.58
2023-04-10T06:51:46.409Z,60.23
2023-04-10T06:52:46.440Z,59.12
2023-04-10T06:53:46.516Z,59.09
2023-04-10T06:54:46.366Z,59.32
2023-04-10T06:55:46.347Z,58.99
2023-04-10T06:56:46.352Z,59.70
2023-04-10T06:57:46.338Z,58.48
2023-04-10T06:58:46.311Z,58.28
2023-04-10T06:59:46.315Z,59.01
2023-04-10T07:00:46.338Z,59.92
2023-04-10T07:01:46.328Z,59.92
2023-04-10T07:02:46.436Z,59.72
2023-04-10T07:03:46.269Z,60.74
2023-04-10T07:04:46.269Z,61.32
2023-04-10T07:05:46.251Z,59.70
2023-04-10T07:06:46.241Z,58.36
2023-04-10T07:07:46.212Z,60.05
2023-04-10T07:08:46.195Z,58.91
2023-04-10T07:09:46.253Z,57.29
2023-04-10T07:10:46.263Z,57.56
2023-04-10T07:11:46.169Z,56.96
2023-04-10T07:12:46.157Z,56.05
2023-04-10T07:13:46.148Z,55.65
2023-04-10T07:14:46.128Z,55.74
2023-04-10T07:15:46.136Z,56.98
2023-04-10T07:16:46.364Z,57.18
2023-04-10T07:17:46.129Z,57.46
2023-04-10T07:18:47.398Z,57.67
2023-04-10T07:19:46.114Z,57.43
2023-04-10T07:20:46.086Z,56.83
2023-04-10T07:21:46.053Z,57.10
2023-04-10T07:22:46.046Z,55.01
2023-04-10T07:23:46.031Z,55.92
2023-04-10T07:24:46.020Z,55.52
2023-04-10T07:25:46.019Z,56.56
2023-04-10T07:26:46.017Z,57.36
2023-04-10T07:27:45.994Z,56.25
2023-04-10T07:28:45.985Z,55.87
2023-04-10T07:29:45.963Z,56.38
2023-04-10T07:30:45.954Z,56.98
2023-04-10T07:31:46.020Z,54.89
2023-04-10T07:32:46.053Z,56.08
2023-04-10T07:33:45.980Z,60.03
2023-04-10T07:34:45.928Z,59.63
2023-04-10T07:35:45.955Z,59.72
2023-04-10T07:36:46.183Z,57.60
2023-04-10T07:37:45.957Z,58.64
2023-04-10T07:38:45.862Z,59.32
2023-04-10T07:39:45.848Z,58.41
2023-04-10T07:40:45.850Z,58.58
2023-04-10T07:41:47.912Z,59.39
2023-04-10T07:42:45.823Z,56.38
2023-04-10T07:43:45.821Z,58.34
2023-04-10T07:44:45.794Z,59.14
2023-04-10T07:45:45.799Z,58.74
2023-04-10T07:46:45.813Z,57.04
2023-04-10T07:47:45.795Z,57.76
2023-04-10T07:48:45.771Z,60.08
2023-04-10T07:49:45.742Z,62.96
2023-04-10T07:50:45.761Z,62.17
2023-04-10T07:51:45.738Z,63.09
2023-04-10T07:52:45.788Z,62.92
2023-04-10T07:53:45.692Z,65.19
2023-04-10T07:54:45.706Z,65.46
2023-04-10T07:55:45.666Z,63.49
2023-04-10T07:56:45.726Z,63.19
2023-04-10T07:57:45.647Z,62.85
2023-04-10T07:58:45.654Z,61.74
2023-04-10T07:59:45.654Z,64.00
2023-04-10T08:00:45.609Z,64.48
2023-04-10T08:01:45.646Z,61.56
2023-04-10T08:02:45.686Z,62.98
2023-04-10T08:03:45.720Z,61.82
2023-04-10T08:04:45.643Z,63.10
2023-04-10T08:05:45.552Z,65.78
2023-04-10T08:06:45.593Z,67.32
2023-04-10T08:07:45.524Z,65.25
2023-04-10T08:08:45.526Z,64.90
2023-04-10T08:09:45.525Z,64.70
2023-04-10T08:10:45.516Z,65.69
2023-04-10T08:11:45.543Z,66.58
2023-04-10T08:12:45.489Z,63.01
2023-04-10T08:13:45.458Z,63.93
2023-04-10T08:14:45.451Z,65.36
2023-04-10T08:15:45.456Z,65.63
2023-04-10T08:16:45.480Z,64.00
2023-04-10T08:17:45.507Z,63.67
2023-04-10T08:18:45.406Z,62.11
2023-04-10T08:19:45.419Z,62.21
2023-04-10T08:20:45.383Z,63.43
2023-04-10T08:21:45.381Z,62.39
2023-04-10T08:22:45.405Z,61.47
2023-04-10T08:23:45.346Z,62.70
2023-04-10T08:24:45.338Z,60.56
2023-04-10T08:25:45.338Z,61.60
2023-04-10T08:26:45.352Z,63.54
2023-04-10T08:27:45.317Z,64.35
2023-04-10T08:28:45.306Z,61.30
2023-04-10T08:29:45.285Z,60.61
2023-04-10T08:30:45.336Z,62.88
2023-04-10T08:31:45.293Z,63.01
2023-04-10T08:32:45.291Z,64.00
2023-04-10T08:33:45.262Z,65.12
2023-04-10T08:34:45.281Z,63.46
2023-04-10T08:35:45.227Z,63.70
2023-04-10T08:36:45.228Z,65.12
2023-04-10T08:37:49.683Z,62.75
2023-04-10T08:38:46.203Z,63.80
2023-04-10T08:39:45.170Z,63.46
2023-04-10T08:40:45.205Z,60.95
2023-04-10T08:41:45.143Z,61.38
2023-04-10T08:42:45.154Z,61.79
2023-04-10T08:43:45.129Z,63.01
2023-04-10T08:44:45.112Z,62.74
2023-04-10T08:45:45.164Z,63.15
2023-04-10T08:46:45.112Z,63.18
2023-04-10T08:47:45.113Z,63.51
2023-04-10T08:48:45.069Z,64.76
2023-04-10T08:49:45.055Z,65.68
2023-04-10T08:50:45.047Z,66.47
2023-04-10T08:51:46.263Z,65.55
2023-04-10T08:52:45.056Z,65.42
2023-04-10T08:53:45.017Z,65.72
2023-04-10T08:54:45.043Z,66.94
2023-04-10T08:55:45.002Z,66.41
2023-04-10T08:56:44.994Z,65.49
2023-04-10T08:57:50.946Z,66.27
2023-04-10T08:58:46.024Z,66.47
2023-04-10T08:59:44.957Z,63.70
2023-04-10T09:00:44.935Z,63.01
2023-04-10T09:01:44.983Z,64.54
2023-04-10T09:02:45.144Z,64.03
2023-04-10T09:03:44.962Z,64.37
2023-04-10T09:04:45.000Z,64.57
2023-04-10T09:05:44.876Z,64.34
2023-04-10T09:06:44.871Z,63.24
2023-04-10T09:07:44.903Z,64.06
2023-04-10T09:08:44.855Z,63.58
2023-04-10T09:09:44.842Z,64.90
2023-04-10T09:10:44.857Z,66.00
2023-04-10T09:11:44.817Z,66.58
2023-04-10T09:12:44.831Z,66.78
2023-04-10T09:13:44.794Z,62.33
2023-04-10T09:14:45.311Z,64.02
2023-04-10T09:15:44.806Z,63.61
2023-04-10T09:16:44.792Z,66.27
2023-04-10T09:17:44.774Z,67.35
2023-04-10T09:18:44.738Z,66.30
2023-04-10T09:19:44.734Z,65.66
2023-04-10T09:20:44.711Z,63.53
2023-04-10T09:21:44.701Z,62.33
2023-04-10T09:22:44.730Z,62.87
2023-04-10T09:23:44.733Z,65.42
2023-04-10T09:24:44.696Z,63.38
2023-04-10T09:25:44.656Z,64.53
2023-04-10T09:26:44.674Z,65.01
2023-04-10T09:27:44.640Z,64.29
2023-04-10T09:28:44.651Z,63.48
2023-04-10T09:29:44.629Z,64.81
2023-04-10T09:30:44.603Z,65.59
2023-04-10T09:31:44.681Z,65.49
2023-04-10T09:32:44.608Z,63.32
2023-04-10T09:33:44.577Z,63.62
2023-04-10T09:34:44.592Z,62.30
2023-04-10T09:35:44.562Z,63.83
2023-04-10T09:36:44.574Z,61.21
2023-04-10T09:37:44.538Z,63.04
2023-04-10T09:38:44.513Z,62.77
2023-04-10T09:39:44.517Z,64.29
2023-04-10T09:40:44.526Z,66.00
2023-04-10T09:41:44.477Z,63.45
2023-04-10T09:42:44.514Z,63.56
2023-04-10T09:43:44.452Z,63.56
2023-04-10T09:44:44.453Z,61.95
2023-04-10T09:45:44.432Z,63.56
2023-04-10T09:46:44.488Z,62.94
2023-04-10T09:47:44.478Z,62.63
2023-04-10T09:48:44.398Z,63.96
2023-04-10T09:49:44.389Z,64.95
2023-04-10T09:50:44.386Z,64.64
2023-04-10T09:51:44.366Z,63.62
2023-04-10T09:52:44.369Z,63.29
2023-04-10T09:53:44.371Z,63.09
2023-04-10T09:54:44.344Z,61.59
2023-04-10T09:55:44.322Z,61.29
2023-04-10T09:56:44.311Z,61.52
2023-04-10T09:57:44.319Z,63.15
2023-04-10T09:58:44.307Z,65.49
2023-04-10T09:59:44.281Z,64.67
2023-04-10T10:00:44.272Z,63.73
2023-04-10T10:01:44.439Z,63.32
2023-04-10T10:02:44.363Z,63.80
2023-04-10T10:03:44.291Z,62.88
2023-04-10T10:04:44.310Z,64.00
2023-04-10T10:05:44.214Z,62.78
2023-04-10T10:06:44.205Z,63.49
2023-04-10T10:07:44.208Z,62.68
2023-04-10T10:08:44.177Z,62.61
2023-04-10T10:09:44.176Z,62.78
2023-04-10T10:10:44.192Z,62.71
2023-04-10T10:11:44.180Z,63.59
2023-04-10T10:12:44.136Z,62.37
2023-04-10T10:13:44.127Z,63.59
2023-04-10T10:14:44.184Z,61.87
2023-04-10T10:15:44.115Z,62.98
2023-04-10T10:16:44.258Z,64.79
2023-04-10T10:17:44.124Z,63.16
2023-04-10T10:18:44.066Z,63.33
2023-04-10T10:19:44.053Z,62.18
2023-04-10T10:20:44.047Z,59.37
2023-04-10T10:21:44.062Z,61.40
2023-04-10T10:22:44.041Z,60.08
2023-04-10T10:23:44.029Z,59.77
2023-04-10T10:24:44.006Z,61.20
2023-04-10T10:25:44.027Z,59.57
2023-04-10T10:26:43.989Z,60.69
2023-04-10T10:27:43.976Z,60.36
2023-04-10T10:28:43.993Z,61.78
2023-04-10T10:29:43.943Z,62.87
2023-04-10T10:30:43.970Z,57.95
2023-04-10T10:31:43.946Z,60.37
2023-04-10T10:32:43.941Z,59.55
2023-04-10T10:33:43.907Z,61.59
2023-04-10T10:34:43.933Z,63.70
2023-04-10T10:35:43.882Z,62.85
2023-04-10T10:36:43.934Z,62.21
2023-04-10T10:37:43.855Z,60.49
2023-04-10T10:38:43.865Z,61.30
2023-04-10T10:39:43.850Z,56.45
2023-04-10T10:40:43.848Z,57.82
2023-04-10T10:41:43.807Z,57.54
2023-04-10T10:42:43.805Z,57.95
2023-04-10T10:43:43.817Z,57.85
2023-04-10T10:44:43.778Z,60.80
2023-04-10T10:45:43.838Z,60.77
2023-04-10T10:46:43.814Z,59.63
2023-04-10T10:47:44.606Z,61.74
2023-04-10T10:48:43.735Z,59.91
2023-04-10T10:49:43.739Z,58.38
2023-04-10T10:50:43.719Z,58.84
2023-04-10T10:51:43.744Z,62.10
2023-04-10T10:52:43.794Z,64.81
2023-04-10T10:53:43.715Z,60.34
2023-04-10T10:54:57.053Z,60.64
2023-04-10T10:55:44.652Z,61.74
2023-04-10T10:56:43.648Z,62.72
2023-04-10T10:57:43.653Z,60.59
2023-04-10T10:58:43.661Z,62.82
2023-04-10T10:59:43.618Z,63.81
2023-04-10T11:00:43.637Z,58.33
2023-04-10T11:01:43.700Z,62.16
2023-04-10T11:02:43.767Z,59.52
2023-04-10T11:03:43.677Z,58.94
2023-04-10T11:04:43.589Z,58.56
2023-04-10T11:05:43.538Z,57.79
2023-04-10T11:06:44.697Z,57.59
2023-04-10T11:07:43.517Z,59.25
2023-04-10T11:08:43.536Z,61.15
2023-04-10T11:09:43.492Z,59.22
2023-04-10T11:10:43.498Z,59.22
2023-04-10T11:11:43.473Z,59.93
2023-04-10T11:12:43.475Z,61.83
2023-04-10T11:13:43.447Z,56.55
2023-04-10T11:14:43.438Z,55.91
2023-04-10T11:15:43.423Z,59.75
2023-04-10T11:16:43.489Z,59.72
2023-04-10T11:17:43.446Z,58.25
2023-04-10T11:18:43.406Z,60.79
2023-04-10T11:19:43.374Z,60.05
2023-04-10T11:20:43.388Z,59.44
2023-04-10T11:21:43.353Z,57.84
2023-04-10T11:22:43.361Z,62.49
2023-04-10T11:23:43.331Z,58.76
2023-04-10T11:24:43.320Z,61.07
2023-04-10T11:25:43.324Z,58.83
2023-04-10T11:26:43.312Z,60.97
2023-04-10T11:27:43.283Z,60.63
2023-04-10T11:28:43.286Z,59.69
2023-04-10T11:29:43.262Z,59.36
2023-04-10T11:30:43.267Z,59.16
2023-04-10T11:31:43.248Z,56.31
2023-04-10T11:32:43.248Z,60.07
2023-04-10T11:33:43.237Z,61.56
2023-04-10T11:34:43.226Z,58.62
2023-04-10T11:35:43.203Z,58.88
2023-04-10T11:36:43.188Z,58.67
2023-04-10T11:37:43.163Z,57.99
2023-04-10T11:38:43.175Z,57.36
2023-04-10T11:39:43.144Z,59.91
2023-04-10T11:40:43.153Z,57.84
2023-04-10T11:41:43.119Z,59.42
2023-04-10T11:42:43.107Z,60.92
2023-04-10T11:43:43.115Z,60.69
2023-04-10T11:44:43.107Z,59.67
2023-04-10T11:45:43.089Z,62.32
2023-04-10T11:46:43.096Z,63.51
2023-04-10T11:47:43.134Z,58.02
2023-04-10T11:48:43.039Z,59.34
2023-04-10T11:49:43.040Z,59.14
2023-04-10T11:50:43.029Z,57.56
2023-04-10T11:51:43.001Z,59.83
2023-04-10T11:52:43.003Z,62.85
2023-04-10T11:53:43.037Z,59.57
2023-04-10T11:54:42.987Z,59.24
2023-04-10T11:55:42.954Z,59.64
2023-04-10T11:56:42.945Z,60.50
2023-04-10T11:57:42.929Z,57.00
2023-04-10T11:58:42.942Z,57.64
2023-04-10T11:59:42.908Z,60.69
2023-04-10T12:00:42.915Z,58.15
2023-04-10T12:01:43.476Z,58.07
2023-04-10T12:02:42.973Z,59.70
2023-04-10T12:03:43.007Z,59.30
2023-04-10T12:04:43.176Z,60.21
2023-04-10T12:05:42.835Z,59.77
2023-04-10T12:06:42.867Z,56.70
2023-04-10T12:07:42.810Z,59.14
2023-04-10T12:08:42.805Z,59.01
2023-04-10T12:09:42.816Z,57.81
2023-04-10T12:10:42.791Z,59.14
2023-04-10T12:11:42.771Z,57.71
2023-04-10T12:12:42.761Z,60.53
2023-04-10T12:13:42.744Z,58.27
2023-04-10T12:14:42.761Z,59.77
2023-04-10T12:15:42.772Z,56.79
2023-04-10T12:16:42.730Z,55.91
2023-04-10T12:17:42.733Z,56.24
2023-04-10T12:18:42.708Z,57.56
2023-04-10T12:19:42.683Z,56.37
2023-04-10T12:20:42.670Z,61.62
2023-04-10T12:21:42.670Z,57.76
2023-04-10T12:22:42.675Z,57.46
2023-04-10T12:23:42.637Z,56.13
2023-04-10T12:24:45.548Z,56.92
2023-04-10T12:25:42.626Z,57.50
2023-04-10T12:26:42.594Z,57.20
2023-04-10T12:27:42.594Z,54.11
2023-04-10T12:28:42.606Z,56.84
2023-04-10T12:29:42.563Z,55.43
2023-04-10T12:30:42.552Z,56.84
2023-04-10T12:31:42.833Z,53.30
2023-04-10T12:32:42.599Z,55.15
2023-04-10T12:33:42.522Z,55.30
2023-04-10T12:34:42.523Z,58.82
2023-04-10T12:35:42.568Z,55.35
2023-04-10T12:36:42.532Z,51.44
2023-04-10T12:37:42.487Z,52.58
2023-04-10T12:38:42.506Z,54.59
2023-04-10T12:39:42.457Z,53.75
2023-04-10T12:40:42.481Z,54.03
2023-04-10T12:41:42.436Z,52.48
2023-04-10T12:42:42.430Z,53.32
2023-04-10T12:43:42.449Z,50.31
2023-04-10T12:44:42.423Z,50.84
2023-04-10T12:45:42.392Z,51.11
2023-04-10T12:46:42.453Z,54.16
2023-04-10T12:47:42.386Z,51.72
2023-04-10T12:48:42.379Z,50.20
2023-04-10T12:49:42.346Z,50.73
2023-04-10T12:50:42.350Z,54.18
2023-04-10T12:51:42.343Z,51.23
2023-04-10T12:52:42.319Z,53.27
2023-04-10T12:53:42.327Z,54.92